»·PEaware :: SWA724 KLAS-KLAX

SWA724 :: KLAS-KLAX

FLIGHT INFORMATION

Flight Status: Arrived
Operator:
Southwest Airlines
More flights by this operator :: More flights under this callsign
Pilot: Chandler S. (807)
Aircraft: BOEING 737-800
(B738)
More flights by this aircraft type
Origin: KLAS McCarran Intl
United States
Destination: KLAX Los Angeles Intl
United States
More flights between these airports :: More routes between these airports
Route: +BOACH8 RIKII SHTNR ANJLL2
File this flight plan on PilotEdge
Remarks:
Altitude:
(Current/Filed)
28,000ft
Speed:
(Current/Filed)
300kts
Departed: 05-Jan-18 08:54 PM
Arrived: 05-Jan-18 09:36 PM
Distance/Time
Traveled:
205nm/0:42
Distance/Time
To Go:
Arrived

Flight Plot

Page will automatically refresh every two minutes.

Flight plan parsing failed; only flown route is shown


Map Options




Map Legend


Flown Route
Filed Route
Departure Airport
Arrival Airport
Navaid (VOR, NDB)
Fix

Horizontal Profiles

Position Reports

Time Latitude Longitude Heading Altitude Ground
Speed
05-Jan-18 20:21 36.079926 -115.147119 57 2149ft 0kts
05-Jan-18 20:22 36.079926 -115.147119 57 2149ft 0kts
05-Jan-18 20:23 36.079926 -115.147119 57 2149ft 0kts
05-Jan-18 20:24 36.079926 -115.147119 57 2149ft 0kts
05-Jan-18 20:25 36.079926 -115.147119 57 2149ft 0kts
05-Jan-18 20:26 36.079926 -115.147119 57 2149ft 0kts
05-Jan-18 20:27 36.079926 -115.147119 57 2149ft 0kts
05-Jan-18 20:28 36.079926 -115.147119 57 2149ft 0kts
05-Jan-18 20:29 36.079926 -115.147119 57 2149ft 0kts
05-Jan-18 20:30 36.079926 -115.147119 57 2149ft 0kts
05-Jan-18 20:31 36.079926 -115.147119 57 2149ft 0kts
05-Jan-18 20:32 36.079926 -115.147119 57 2149ft 0kts
05-Jan-18 20:33 36.079926 -115.147119 57 2149ft 0kts
05-Jan-18 20:34 36.079926 -115.147119 57 2149ft 0kts
05-Jan-18 20:35 36.079926 -115.147119 57 2149ft 0kts
05-Jan-18 20:36 36.079926 -115.147119 57 2149ft 0kts
05-Jan-18 20:37 36.079926 -115.147119 57 2149ft 0kts
05-Jan-18 20:38 36.079926 -115.147119 57 2149ft 0kts
05-Jan-18 20:39 36.079926 -115.147119 57 2149ft 0kts
05-Jan-18 20:40 36.079926 -115.147119 57 2149ft 0kts
05-Jan-18 20:41 36.079926 -115.147119 57 2149ft 0kts
05-Jan-18 20:42 36.079926 -115.147119 57 2149ft 0kts
05-Jan-18 20:43 36.079926 -115.147119 57 2149ft 0kts
05-Jan-18 20:44 36.079926 -115.147119 57 2149ft 0kts
05-Jan-18 20:45 36.079926 -115.147119 57 2149ft 0kts
05-Jan-18 20:46 36.079926 -115.147119 57 2149ft 0kts
05-Jan-18 20:47 36.079926 -115.147119 57 2149ft 0kts
05-Jan-18 20:48 36.079926 -115.147119 57 2149ft 0kts
05-Jan-18 20:49 36.079723 -115.147575 58 2149ft 2kts
05-Jan-18 20:50 36.079639 -115.148254 112 2149ft 2kts
05-Jan-18 20:51 36.079917 -115.148622 157 2149ft 0kts
05-Jan-18 20:52 36.079917 -115.148622 157 2149ft 0kts
05-Jan-18 20:53 36.079230 -115.148282 161 2149ft 0kts
05-Jan-18 20:54 36.079097 -115.148230 166 2149ft 6kts
05-Jan-18 20:55 36.078804 -115.152255 264 2149ft 12kts
05-Jan-18 20:56 36.082879 -115.155782 336 2149ft 22kts
05-Jan-18 20:57 36.087979 -115.157423 24 2149ft 22kts
05-Jan-18 20:58 36.094358 -115.153791 23 2149ft 27kts
05-Jan-18 20:59 36.097967 -115.152474 304 2149ft 0kts
05-Jan-18 21:00 36.096757 -115.154589 204 2149ft 53kts
05-Jan-18 21:01 36.057252 -115.179327 209 4434ft 203kts
05-Jan-18 21:02 36.006965 -115.221405 238 6869ft 240kts
05-Jan-18 21:03 35.967435 -115.294563 213 10084ft 267kts
05-Jan-18 21:04 35.890902 -115.311179 189 13169ft 291kts
05-Jan-18 21:05 35.808693 -115.309924 179 16259ft 308kts
05-Jan-18 21:06 35.722397 -115.299757 181 19442ft 321kts
05-Jan-18 21:07 35.633754 -115.296009 189 22385ft 323kts
05-Jan-18 21:08 35.543682 -115.299943 190 25080ft 330kts
05-Jan-18 21:09 35.460856 -115.333909 217 27592ft 311kts
05-Jan-18 21:10 35.382107 -115.391433 217 28280ft 362kts
05-Jan-18 21:11 35.288043 -115.459637 216 28274ft 424kts
05-Jan-18 21:12 35.189141 -115.531235 216 28256ft 431kts
05-Jan-18 21:13 35.092256 -115.613730 234 28252ft 419kts
05-Jan-18 21:14 35.014002 -115.718522 229 28282ft 423kts
05-Jan-18 21:15 34.932189 -115.822032 228 28303ft 426kts
05-Jan-18 21:16 34.850786 -115.925419 228 28312ft 429kts
05-Jan-18 21:17 34.768483 -116.029619 228 28311ft 429kts
05-Jan-18 21:18 34.686731 -116.133622 229 28310ft 428kts
05-Jan-18 21:19 34.604251 -116.238362 228 28302ft 429kts
05-Jan-18 21:20 34.522482 -116.342512 229 28307ft 428kts
05-Jan-18 21:21 34.449613 -116.435453 229 28307ft 428kts
05-Jan-18 21:22 34.384789 -116.553066 245 28263ft 425kts
05-Jan-18 21:23 34.333714 -116.678767 244 27645ft 422kts
05-Jan-18 21:24 34.284075 -116.802161 244 25158ft 397kts
05-Jan-18 21:25 34.237734 -116.916877 244 22473ft 382kts
05-Jan-18 21:26 34.197705 -117.032213 251 19665ft 368kts
05-Jan-18 21:27 34.166866 -117.146592 251 17041ft 349kts
05-Jan-18 21:28 34.137471 -117.253628 250 15232ft 330kts
05-Jan-18 21:29 34.109408 -117.355480 250 14010ft 307kts
05-Jan-18 21:30 34.083824 -117.455972 252 12611ft 325kts
05-Jan-18 21:31 34.058659 -117.555547 252 11635ft 301kts
05-Jan-18 21:32 34.033617 -117.653320 252 10149ft 311kts
05-Jan-18 21:33 34.016684 -117.750430 263 9183ft 295kts
05-Jan-18 21:34 34.007787 -117.844615 263 8042ft 273kts
05-Jan-18 21:35 33.999201 -117.932725 263 6915ft 273kts
05-Jan-18 21:36 33.990500 -118.021091 263 5688ft 266kts
05-Jan-18 21:37 33.981918 -118.107207 263 4359ft 265kts
05-Jan-18 21:38 33.974329 -118.190105 262 3666ft 234kts
05-Jan-18 21:39 33.966539 -118.263069 262 2438ft 208kts
05-Jan-18 21:40 33.959988 -118.326615 262 1388ft 171kts
05-Jan-18 21:41 33.954709 -118.376867 261 607ft 149kts
05-Jan-18 21:42 33.950468 -118.416795 254 133ft 30kts
05-Jan-18 21:43 33.946935 -118.421990 99 133ft 12kts
05-Jan-18 21:44 33.947531 -118.415540 82 133ft 25kts
05-Jan-18 21:45 33.948467 -118.407570 82 133ft 19kts
05-Jan-18 21:46 33.948368 -118.401387 83 133ft 14kts
05-Jan-18 21:47 33.946928 -118.400199 223 133ft 0kts
05-Jan-18 21:48 33.946835 -118.400672 264 133ft 0kts
05-Jan-18 21:49 33.946835 -118.400672 264 133ft 0kts
05-Jan-18 21:50 33.946835 -118.400672 264 133ft 0kts
05-Jan-18 21:51 33.946835 -118.400672 264 133ft 0kts

Navigation Log

Ident Type
Flight plan parsing failed, navigation log unavailable